Hauptseite
METAR-TAF:

METAR-TAF

Flughäfen :

Flughafen Weeze

Weeze, Deutschland

Breite: 51-36-09N, Länge: 006-08-32E, Höhe: 32 m

Beobachtung

Neuester Wetterbericht von vor 3 Stunden und 43 Minuten, um 22:50 UTC
Wind 6 kt aus Ost, variierte zwischen Nord/Nordost und Südost
Temperatur 2°C
Luftfeuchtigkeit 93%
Luftdruck 1010 hPa
Sichtweite 10 km oder mehr
keine Wolken unter 1500 m und keine Kumulonimbus oder Gewitterwolken

METAR: EDLV 202250Z 09006KT 020V130 CAVOK 02/01 Q1010

Zeit: 03:33 (02:33 UTC)

Prognose

Neuester Wetterbericht von vor 3 Stunden und 33 Minuten, um 23:00 UTC
Gültige Prognose vom 21 um 00 UTC bis 21 um 24 UTC
Wind 6 kt aus Ost
Sichtweite 10 km oder mehr
keine Wolken unter 1500 m und keine Kumulonimbus oder Gewitterwolken

TAF: EDLV 202300Z 2100/2124 08006KT CAVOK

Wetterbeobachtungen und Prognosen von mehr als 4000 Flughäfen (METAR und TAF Bericht).

Die verfügbaren Stationen werden durch gelbe und rote Markierungen auf der Karte dargestellt.

Führen Sie die Maus auf sie, um den Namen der Station zu sehen.

Darauf klicken, um die Beobachtung von Wetterbeobachtungen und Prognosen zu sehen.

Um die Karte zu ändern : klicken Sie auf den grünen Tasten mit einem schwarzen Kreuz Zum Vergrößern, auf den grünen Button mit einem Gedankenstrich zu verkleinern, oder auf die grünen Pfeile für benachbarte Karten.


METAR-TAF: